createdAt,value
2023-03-06T00:01:55.990Z,0.67
2023-03-06T00:06:59.437Z,0.57
2023-03-06T00:12:03.063Z,0.46
2023-03-06T00:17:06.535Z,0.45
2023-03-06T00:22:14.304Z,0.47
2023-03-06T00:27:17.806Z,0.51
2023-03-06T00:32:20.966Z,0.44
2023-03-06T00:37:25.996Z,0.61
2023-03-06T00:42:29.849Z,0.82
2023-03-06T00:47:33.696Z,1.31
2023-03-06T00:52:37.804Z,1.69
2023-03-06T00:57:41.736Z,2.11
2023-03-06T01:02:44.794Z,1.62
2023-03-06T01:07:48.154Z,1.38
2023-03-06T01:12:51.663Z,1.00
2023-03-06T01:17:54.807Z,0.94
2023-03-06T01:22:58.243Z,0.69
2023-03-06T01:28:01.335Z,0.66
2023-03-06T01:33:05.675Z,0.93
2023-03-06T01:38:09.092Z,1.22
2023-03-06T01:43:34.169Z,1.25
2023-03-06T01:48:38.686Z,1.22
2023-03-06T01:53:43.836Z,1.33
2023-03-06T01:58:49.921Z,1.13
2023-03-06T02:03:53.752Z,0.84
2023-03-06T02:08:57.223Z,0.67
2023-03-06T02:14:00.675Z,0.41
2023-03-06T02:19:08.101Z,0.22
2023-03-06T02:24:39.793Z,0.14
2023-03-06T02:29:44.565Z,-0.03
2023-03-06T02:34:55.329Z,-0.18
2023-03-06T02:40:10.321Z,-0.35
2023-03-06T02:45:15.893Z,-0.38
2023-03-06T02:50:19.327Z,-0.57
2023-03-06T02:55:24.561Z,-0.36
2023-03-06T03:00:31.208Z,-0.43
2023-03-06T03:05:36.471Z,-0.50
2023-03-06T03:10:49.522Z,-0.51
2023-03-06T03:16:00.657Z,-0.64
2023-03-06T03:21:08.801Z,-0.73
2023-03-06T03:26:18.791Z,-0.62
2023-03-06T03:31:43.490Z,-0.74
2023-03-06T03:36:46.824Z,-0.70
2023-03-06T03:41:51.268Z,-0.74
2023-03-06T03:46:55.766Z,-0.82
2023-03-06T03:51:59.996Z,-0.70
2023-03-06T03:57:05.985Z,-0.79
2023-03-06T04:02:12.888Z,-0.89
2023-03-06T04:07:26.959Z,-0.91
2023-03-06T04:12:31.160Z,-0.84
2023-03-06T04:17:36.168Z,-0.25
2023-03-06T04:22:43.454Z,-0.38
2023-03-06T04:27:47.827Z,-0.43
2023-03-06T04:32:51.379Z,-0.53
2023-03-06T04:37:57.320Z,-0.63
2023-03-06T04:43:03.589Z,-0.66
2023-03-06T04:48:07.027Z,-0.60
2023-03-06T04:53:11.469Z,-0.49
2023-03-06T04:58:15.185Z,-0.54
2023-03-06T05:03:18.163Z,-0.45
2023-03-06T05:08:21.341Z,-0.58
2023-03-06T05:13:25.820Z,-0.50
2023-03-06T05:18:28.840Z,-0.72
2023-03-06T05:23:35.884Z,-0.64
2023-03-06T05:28:40.031Z,-0.75
2023-03-06T05:33:43.043Z,-0.44
2023-03-06T05:38:46.221Z,-0.65
2023-03-06T05:43:50.666Z,-0.40
2023-03-06T05:48:58.072Z,-0.28
2023-03-06T05:54:01.462Z,-0.27
2023-03-06T05:59:04.477Z,-0.26
2023-03-06T06:04:07.836Z,-0.25
2023-03-06T06:09:13.839Z,0.28
2023-03-06T06:14:18.302Z,0.76
2023-03-06T06:19:22.358Z,0.87
2023-03-06T06:24:27.177Z,1.70
2023-03-06T06:29:31.153Z,2.30
2023-03-06T06:34:35.226Z,5.53
2023-03-06T06:39:38.533Z,9.98
2023-03-06T06:44:41.672Z,11.69
2023-03-06T06:49:46.734Z,12.23
2023-03-06T06:54:50.551Z,13.18
2023-03-06T06:59:54.337Z,13.81
2023-03-06T07:05:04.311Z,13.24
2023-03-06T07:10:13.561Z,13.21
2023-03-06T07:15:18.205Z,13.52
2023-03-06T07:20:21.764Z,13.19
2023-03-06T07:25:25.142Z,12.68
2023-03-06T07:30:28.205Z,12.63
2023-03-06T07:35:31.487Z,12.86
2023-03-06T07:40:35.275Z,13.21
2023-03-06T07:45:39.117Z,13.18
2023-03-06T07:50:43.431Z,12.82
2023-03-06T07:55:46.954Z,13.37
2023-03-06T08:00:50.905Z,12.59
2023-03-06T08:05:54.402Z,13.07
2023-03-06T08:10:57.793Z,13.64
2023-03-06T08:16:00.913Z,14.08
2023-03-06T08:21:11.382Z,14.08
2023-03-06T08:26:17.272Z,14.56
2023-03-06T08:31:40.264Z,14.45
2023-03-06T08:36:44.151Z,15.00
2023-03-06T08:41:47.308Z,14.22
2023-03-06T08:46:50.528Z,14.84
2023-03-06T08:51:54.036Z,14.22
2023-03-06T08:56:57.165Z,14.16
2023-03-06T09:02:01.836Z,13.72
2023-03-06T09:07:05.309Z,13.24
2023-03-06T09:12:09.824Z,13.28
2023-03-06T09:17:12.848Z,13.42
2023-03-06T09:22:16.163Z,13.30
2023-03-06T09:27:19.683Z,13.68
2023-03-06T09:32:24.169Z,14.19
2023-03-06T09:37:27.706Z,14.17
2023-03-06T09:42:31.872Z,14.13
2023-03-06T09:47:59.293Z,13.21
2023-03-06T09:53:19.223Z,13.66
2023-03-06T09:58:25.210Z,14.32
2023-03-06T10:03:47.033Z,14.32
2023-03-06T10:09:23.623Z,14.65
2023-03-06T10:14:41.423Z,14.65
2023-03-06T10:19:44.818Z,14.81
2023-03-06T10:24:59.573Z,13.20
2023-03-06T10:30:11.631Z,13.52
2023-03-06T10:35:26.226Z,13.52
2023-03-06T10:40:49.719Z,14.50
2023-03-06T10:45:55.558Z,14.59
2023-03-06T10:51:20.233Z,14.64
2023-03-06T10:56:40.405Z,15.13
2023-03-06T11:01:46.378Z,14.62
2023-03-06T11:07:04.611Z,13.74
2023-03-06T11:12:26.091Z,13.30
2023-03-06T11:17:32.297Z,12.98
2023-03-06T11:22:36.448Z,12.40
2023-03-06T11:27:43.104Z,11.76
2023-03-06T11:32:54.185Z,12.09
2023-03-06T11:38:05.337Z,12.09
2023-03-06T11:43:24.413Z,11.95
2023-03-06T11:48:40.077Z,11.32
2023-03-06T11:53:43.627Z,11.31
2023-03-06T11:59:17.359Z,11.32
2023-03-06T12:04:20.695Z,11.33
2023-03-06T12:09:46.217Z,11.18
2023-03-06T12:15:18.565Z,11.85
2023-03-06T12:20:32.641Z,11.64
2023-03-06T12:25:56.120Z,11.29
2023-03-06T12:31:28.308Z,11.86
2023-03-06T12:36:44.387Z,11.84
2023-03-06T12:42:22.574Z,11.66
2023-03-06T12:47:29.468Z,11.74
2023-03-06T12:52:34.289Z,12.06
2023-03-06T12:57:37.905Z,11.96
2023-03-06T13:03:07.425Z,11.48
2023-03-06T13:08:36.825Z,10.93
2023-03-06T13:13:45.738Z,10.71
2023-03-06T13:19:11.652Z,10.66
2023-03-06T13:24:22.621Z,10.64
2023-03-06T13:29:38.022Z,10.47
2023-03-06T13:34:42.492Z,10.10
2023-03-06T13:39:54.993Z,10.02
2023-03-06T13:45:17.732Z,9.96
2023-03-06T13:50:42.076Z,9.71
2023-03-06T13:56:00.980Z,9.67
2023-03-06T14:01:22.817Z,9.65
2023-03-06T14:06:35.896Z,9.50
2023-03-06T14:11:46.322Z,9.61
2023-03-06T14:16:51.392Z,9.59
2023-03-06T14:21:58.348Z,9.55
2023-03-06T14:27:01.548Z,9.31
2023-03-06T14:32:10.522Z,9.33
2023-03-06T14:37:24.848Z,9.16
2023-03-06T14:42:29.460Z,8.52
2023-03-06T14:47:35.014Z,7.40
2023-03-06T14:52:38.489Z,7.46
2023-03-06T14:57:41.640Z,7.40
2023-03-06T15:02:47.132Z,7.41
2023-03-06T15:07:53.132Z,7.34
2023-03-06T15:12:56.503Z,6.87
2023-03-06T15:18:01.589Z,6.45
2023-03-06T15:23:34.388Z,6.08
2023-03-06T15:28:39.761Z,5.96
2023-03-06T15:33:43.048Z,5.89
2023-03-06T15:38:47.967Z,5.92
2023-03-06T15:43:51.770Z,5.89
2023-03-06T15:49:03.254Z,5.93
2023-03-06T15:54:12.394Z,5.95
2023-03-06T15:59:31.217Z,6.00
2023-03-06T16:04:34.255Z,5.92
2023-03-06T16:09:38.035Z,6.05
2023-03-06T16:14:41.219Z,6.07
2023-03-06T16:19:45.358Z,6.20
2023-03-06T16:24:48.991Z,6.42
2023-03-06T16:29:53.795Z,6.31
2023-03-06T16:34:57.578Z,6.32
2023-03-06T16:40:01.072Z,6.53
2023-03-06T16:45:04.370Z,6.62
2023-03-06T16:50:16.221Z,6.44
2023-03-06T16:55:20.567Z,6.51
2023-03-06T17:00:31.261Z,6.50
2023-03-06T17:05:36.165Z,6.38
2023-03-06T17:10:42.716Z,6.57
2023-03-06T17:15:57.090Z,6.45
2023-03-06T17:21:00.749Z,6.46
2023-03-06T17:26:11.283Z,6.59
2023-03-06T17:31:21.119Z,6.52
2023-03-06T17:36:24.623Z,6.46
2023-03-06T17:41:28.267Z,6.65
2023-03-06T17:46:35.061Z,6.72
2023-03-06T17:51:38.730Z,6.82
2023-03-06T17:56:42.997Z,6.82
2023-03-06T18:01:46.360Z,6.86
2023-03-06T18:06:49.863Z,6.75
2023-03-06T18:11:53.334Z,6.65
2023-03-06T18:16:56.754Z,6.65
2023-03-06T18:22:01.814Z,6.82
2023-03-06T18:27:05.378Z,6.77
2023-03-06T18:32:11.169Z,6.68
2023-03-06T18:37:14.713Z,6.48
2023-03-06T18:42:18.932Z,6.36
2023-03-06T18:47:22.599Z,6.34
2023-03-06T18:52:26.066Z,6.23
2023-03-06T18:57:30.492Z,6.19
2023-03-06T19:02:33.935Z,6.34
2023-03-06T19:07:37.406Z,6.25
2023-03-06T19:12:41.897Z,6.25
2023-03-06T19:17:50.318Z,6.27
2023-03-06T19:22:54.698Z,6.25
2023-03-06T19:27:58.404Z,6.32
2023-03-06T19:33:01.834Z,6.35
2023-03-06T19:38:05.726Z,6.32
2023-03-06T19:43:10.055Z,6.25
2023-03-06T19:48:14.539Z,6.32
2023-03-06T19:53:17.768Z,6.41
2023-03-06T19:58:20.780Z,6.52
2023-03-06T20:03:23.708Z,6.52
2023-03-06T20:08:27.208Z,6.70
2023-03-06T20:13:31.094Z,6.64
2023-03-06T20:18:34.566Z,6.52
2023-03-06T20:23:38.367Z,6.59
2023-03-06T20:28:43.094Z,6.64
2023-03-06T20:33:49.451Z,6.47
2023-03-06T20:38:52.502Z,6.54
2023-03-06T20:43:56.050Z,6.51
2023-03-06T20:48:59.775Z,6.69
2023-03-06T20:54:03.815Z,6.67
2023-03-06T20:59:08.284Z,6.62
2023-03-06T21:04:14.322Z,6.75
2023-03-06T21:09:18.317Z,6.48
2023-03-06T21:14:22.057Z,6.59
2023-03-06T21:19:25.700Z,6.71
2023-03-06T21:24:28.976Z,6.72
2023-03-06T21:29:33.320Z,6.82
2023-03-06T21:34:36.287Z,6.77
2023-03-06T21:39:39.310Z,6.84
2023-03-06T21:44:42.335Z,6.73
2023-03-06T21:49:45.495Z,6.72
2023-03-06T21:54:49.964Z,6.85
2023-03-06T21:59:53.019Z,6.80
2023-03-06T22:04:56.553Z,6.87
2023-03-06T22:09:59.518Z,6.95
2023-03-06T22:15:03.437Z,6.90
2023-03-06T22:20:06.926Z,6.73
2023-03-06T22:25:10.534Z,6.67
2023-03-06T22:30:14.007Z,6.65
2023-03-06T22:35:17.108Z,6.65
2023-03-06T22:40:20.998Z,6.67
2023-03-06T22:45:23.917Z,6.54
2023-03-06T22:50:26.893Z,6.57
2023-03-06T22:55:30.795Z,6.57
2023-03-06T23:00:33.813Z,6.54
2023-03-06T23:05:44.253Z,6.60
2023-03-06T23:10:47.527Z,6.46
2023-03-06T23:16:10.390Z,6.55
2023-03-06T23:21:32.315Z,6.44
2023-03-06T23:26:54.750Z,6.55
2023-03-06T23:31:58.220Z,6.47
2023-03-06T23:37:01.470Z,6.40
2023-03-06T23:42:05.206Z,6.42
2023-03-06T23:47:08.142Z,6.36
2023-03-06T23:52:11.111Z,6.54
2023-03-06T23:57:14.795Z,6.48
